sensor_id;sensor_type;location;lat;lon;timestamp;P1;durP1;ratioP1;P2;durP2;ratioP2
15603;SDS011;7902;49.042;9.092;2024-03-25T00:00:12;13.70;;;1.50;;
15603;SDS011;7902;49.042;9.092;2024-03-25T00:02:39;13.53;;;1.70;;
15603;SDS011;7902;49.042;9.092;2024-03-25T00:05:06;15.90;;;2.30;;
15603;SDS011;7902;49.042;9.092;2024-03-25T00:07:35;11.87;;;1.70;;
15603;SDS011;7902;49.042;9.092;2024-03-25T00:10:02;16.43;;;1.77;;
15603;SDS011;7902;49.042;9.092;2024-03-25T00:12:28;17.53;;;1.80;;
15603;SDS011;7902;49.042;9.092;2024-03-25T00:14:54;12.83;;;1.60;;
15603;SDS011;7902;49.042;9.092;2024-03-25T00:17:20;13.37;;;1.70;;
15603;SDS011;7902;49.042;9.092;2024-03-25T00:19:46;12.77;;;1.90;;
15603;SDS011;7902;49.042;9.092;2024-03-25T00:22:19;16.77;;;2.60;;
15603;SDS011;7902;49.042;9.092;2024-03-25T00:24:46;13.63;;;1.77;;
15603;SDS011;7902;49.042;9.092;2024-03-25T00:27:13;27.00;;;1.83;;
15603;SDS011;7902;49.042;9.092;2024-03-25T00:29:39;13.23;;;1.80;;
15603;SDS011;7902;49.042;9.092;2024-03-25T00:32:06;14.23;;;1.70;;
15603;SDS011;7902;49.042;9.092;2024-03-25T00:41:04;15.77;;;1.53;;
15603;SDS011;7902;49.042;9.092;2024-03-25T00:43:30;10.93;;;1.00;;
15603;SDS011;7902;49.042;9.092;2024-03-25T00:45:56;17.00;;;1.57;;
15603;SDS011;7902;49.042;9.092;2024-03-25T00:48:22;16.10;;;2.17;;
15603;SDS011;7902;49.042;9.092;2024-03-25T00:50:48;13.80;;;1.60;;
15603;SDS011;7902;49.042;9.092;2024-03-25T00:53:14;13.10;;;1.90;;
15603;SDS011;7902;49.042;9.092;2024-03-25T00:55:40;16.67;;;2.47;;
15603;SDS011;7902;49.042;9.092;2024-03-25T00:58:06;16.90;;;2.30;;
15603;SDS011;7902;49.042;9.092;2024-03-25T01:00:32;17.23;;;2.07;;
15603;SDS011;7902;49.042;9.092;2024-03-25T01:02:58;14.80;;;1.60;;
15603;SDS011;7902;49.042;9.092;2024-03-25T01:05:24;16.43;;;1.90;;
15603;SDS011;7902;49.042;9.092;2024-03-25T01:07:50;15.73;;;1.80;;
15603;SDS011;7902;49.042;9.092;2024-03-25T01:10:16;14.27;;;1.80;;
15603;SDS011;7902;49.042;9.092;2024-03-25T01:12:42;16.70;;;2.30;;
15603;SDS011;7902;49.042;9.092;2024-03-25T01:15:08;14.03;;;1.90;;
15603;SDS011;7902;49.042;9.092;2024-03-25T01:17:36;18.57;;;1.70;;
15603;SDS011;7902;49.042;9.092;2024-03-25T01:20:02;17.63;;;1.70;;
15603;SDS011;7902;49.042;9.092;2024-03-25T01:22:30;13.87;;;1.90;;
15603;SDS011;7902;49.042;9.092;2024-03-25T01:24:57;13.23;;;1.80;;
15603;SDS011;7902;49.042;9.092;2024-03-25T01:27:23;13.00;;;1.83;;
15603;SDS011;7902;49.042;9.092;2024-03-25T01:29:49;13.03;;;1.90;;
15603;SDS011;7902;49.042;9.092;2024-03-25T01:32:15;13.13;;;2.23;;
15603;SDS011;7902;49.042;9.092;2024-03-25T01:34:41;19.03;;;2.20;;
15603;SDS011;7902;49.042;9.092;2024-03-25T01:37:07;15.53;;;2.00;;
15603;SDS011;7902;49.042;9.092;2024-03-25T01:39:32;14.70;;;1.80;;
15603;SDS011;7902;49.042;9.092;2024-03-25T01:41:58;13.97;;;3.27;;
15603;SDS011;7902;49.042;9.092;2024-03-25T01:44:24;13.13;;;1.40;;
15603;SDS011;7902;49.042;9.092;2024-03-25T01:46:50;15.90;;;1.90;;
15603;SDS011;7902;49.042;9.092;2024-03-25T01:49:18;14.40;;;1.57;;
15603;SDS011;7902;49.042;9.092;2024-03-25T01:51:45;15.50;;;2.23;;
15603;SDS011;7902;49.042;9.092;2024-03-25T01:54:11;14.43;;;2.30;;
15603;SDS011;7902;49.042;9.092;2024-03-25T01:56:39;19.23;;;2.50;;
15603;SDS011;7902;49.042;9.092;2024-03-25T01:59:07;17.77;;;2.10;;
15603;SDS011;7902;49.042;9.092;2024-03-25T02:01:33;14.50;;;1.90;;
15603;SDS011;7902;49.042;9.092;2024-03-25T02:03:59;16.97;;;2.17;;
15603;SDS011;7902;49.042;9.092;2024-03-25T02:06:26;17.27;;;1.90;;
15603;SDS011;7902;49.042;9.092;2024-03-25T02:08:54;12.60;;;1.93;;
15603;SDS011;7902;49.042;9.092;2024-03-25T02:11:20;14.47;;;1.87;;
15603;SDS011;7902;49.042;9.092;2024-03-25T02:13:46;14.50;;;1.80;;
15603;SDS011;7902;49.042;9.092;2024-03-25T02:16:12;16.80;;;2.30;;
15603;SDS011;7902;49.042;9.092;2024-03-25T02:18:38;13.30;;;2.33;;
15603;SDS011;7902;49.042;9.092;2024-03-25T02:21:04;15.03;;;1.90;;
15603;SDS011;7902;49.042;9.092;2024-03-25T02:23:31;16.20;;;2.40;;
15603;SDS011;7902;49.042;9.092;2024-03-25T02:25:59;14.90;;;1.80;;
15603;SDS011;7902;49.042;9.092;2024-03-25T02:28:25;13.97;;;1.97;;
15603;SDS011;7902;49.042;9.092;2024-03-25T02:30:51;13.67;;;1.90;;
15603;SDS011;7902;49.042;9.092;2024-03-25T02:33:17;16.40;;;2.37;;
15603;SDS011;7902;49.042;9.092;2024-03-25T02:35:43;19.87;;;2.60;;
15603;SDS011;7902;49.042;9.092;2024-03-25T02:38:10;14.40;;;1.70;;
15603;SDS011;7902;49.042;9.092;2024-03-25T02:40:36;14.90;;;1.63;;
15603;SDS011;7902;49.042;9.092;2024-03-25T02:43:03;16.50;;;1.80;;
15603;SDS011;7902;49.042;9.092;2024-03-25T02:45:29;16.07;;;2.37;;
15603;SDS011;7902;49.042;9.092;2024-03-25T02:47:55;16.43;;;2.17;;
15603;SDS011;7902;49.042;9.092;2024-03-25T02:50:21;13.90;;;2.07;;
15603;SDS011;7902;49.042;9.092;2024-03-25T02:52:47;17.93;;;2.13;;
15603;SDS011;7902;49.042;9.092;2024-03-25T02:55:13;11.97;;;1.70;;
15603;SDS011;7902;49.042;9.092;2024-03-25T02:57:39;15.43;;;1.70;;
15603;SDS011;7902;49.042;9.092;2024-03-25T03:00:05;12.40;;;1.53;;
15603;SDS011;7902;49.042;9.092;2024-03-25T03:02:31;17.57;;;2.40;;
15603;SDS011;7902;49.042;9.092;2024-03-25T03:04:57;14.83;;;1.60;;
15603;SDS011;7902;49.042;9.092;2024-03-25T03:07:23;14.43;;;1.70;;
15603;SDS011;7902;49.042;9.092;2024-03-25T03:09:49;16.50;;;2.27;;
15603;SDS011;7902;49.042;9.092;2024-03-25T03:12:15;15.33;;;1.70;;
15603;SDS011;7902;49.042;9.092;2024-03-25T03:14:41;16.93;;;2.40;;
15603;SDS011;7902;49.042;9.092;2024-03-25T03:17:07;16.63;;;1.77;;
15603;SDS011;7902;49.042;9.092;2024-03-25T03:19:33;16.37;;;1.53;;
15603;SDS011;7902;49.042;9.092;2024-03-25T03:21:58;20.40;;;1.90;;
15603;SDS011;7902;49.042;9.092;2024-03-25T03:24:24;11.03;;;1.33;;
15603;SDS011;7902;49.042;9.092;2024-03-25T03:26:50;15.00;;;1.70;;
15603;SDS011;7902;49.042;9.092;2024-03-25T03:29:16;15.40;;;2.23;;
15603;SDS011;7902;49.042;9.092;2024-03-25T03:31:42;14.40;;;2.37;;
15603;SDS011;7902;49.042;9.092;2024-03-25T03:34:08;14.40;;;1.97;;
15603;SDS011;7902;49.042;9.092;2024-03-25T03:36:34;12.57;;;1.63;;
15603;SDS011;7902;49.042;9.092;2024-03-25T03:39:00;15.40;;;2.13;;
15603;SDS011;7902;49.042;9.092;2024-03-25T03:41:26;17.93;;;2.30;;
15603;SDS011;7902;49.042;9.092;2024-03-25T03:43:52;14.03;;;2.70;;
15603;SDS011;7902;49.042;9.092;2024-03-25T03:46:18;16.10;;;2.17;;
15603;SDS011;7902;49.042;9.092;2024-03-25T03:48:44;16.50;;;2.23;;
15603;SDS011;7902;49.042;9.092;2024-03-25T03:51:09;14.17;;;2.20;;
15603;SDS011;7902;49.042;9.092;2024-03-25T03:53:35;17.10;;;2.03;;
15603;SDS011;7902;49.042;9.092;2024-03-25T03:56:02;15.00;;;2.20;;
15603;SDS011;7902;49.042;9.092;2024-03-25T03:58:32;15.20;;;2.20;;
15603;SDS011;7902;49.042;9.092;2024-03-25T04:00:58;15.60;;;1.83;;
15603;SDS011;7902;49.042;9.092;2024-03-25T04:03:25;15.47;;;2.13;;
15603;SDS011;7902;49.042;9.092;2024-03-25T04:05:51;13.87;;;2.30;;
15603;SDS011;7902;49.042;9.092;2024-03-25T04:08:17;17.83;;;2.40;;
15603;SDS011;7902;49.042;9.092;2024-03-25T04:10:44;13.60;;;1.70;;
15603;SDS011;7902;49.042;9.092;2024-03-25T04:13:10;16.30;;;1.93;;
15603;SDS011;7902;49.042;9.092;2024-03-25T04:15:37;18.60;;;2.10;;
15603;SDS011;7902;49.042;9.092;2024-03-25T04:18:04;12.83;;;2.13;;
15603;SDS011;7902;49.042;9.092;2024-03-25T04:20:37;12.73;;;1.93;;
15603;SDS011;7902;49.042;9.092;2024-03-25T04:23:07;13.23;;;2.03;;
15603;SDS011;7902;49.042;9.092;2024-03-25T04:25:33;13.93;;;1.83;;
15603;SDS011;7902;49.042;9.092;2024-03-25T04:28:00;14.53;;;2.77;;
15603;SDS011;7902;49.042;9.092;2024-03-25T04:30:26;15.37;;;2.60;;
15603;SDS011;7902;49.042;9.092;2024-03-25T04:32:52;17.70;;;2.17;;
15603;SDS011;7902;49.042;9.092;2024-03-25T04:35:18;15.10;;;2.30;;
15603;SDS011;7902;49.042;9.092;2024-03-25T04:37:44;13.50;;;2.53;;
15603;SDS011;7902;49.042;9.092;2024-03-25T04:40:10;14.20;;;2.40;;
15603;SDS011;7902;49.042;9.092;2024-03-25T04:42:40;20.00;;;2.40;;
15603;SDS011;7902;49.042;9.092;2024-03-25T04:45:07;13.07;;;2.23;;
15603;SDS011;7902;49.042;9.092;2024-03-25T04:47:33;21.60;;;5.40;;
15603;SDS011;7902;49.042;9.092;2024-03-25T04:50:01;20.13;;;3.30;;
15603;SDS011;7902;49.042;9.092;2024-03-25T04:52:28;17.23;;;3.47;;
15603;SDS011;7902;49.042;9.092;2024-03-25T04:54:54;16.47;;;2.73;;
15603;SDS011;7902;49.042;9.092;2024-03-25T04:57:20;15.83;;;2.80;;
15603;SDS011;7902;49.042;9.092;2024-03-25T04:59:46;21.83;;;3.10;;
15603;SDS011;7902;49.042;9.092;2024-03-25T05:02:12;13.43;;;2.80;;
15603;SDS011;7902;49.042;9.092;2024-03-25T05:04:39;20.13;;;2.83;;
15603;SDS011;7902;49.042;9.092;2024-03-25T05:07:05;16.67;;;3.03;;
15603;SDS011;7902;49.042;9.092;2024-03-25T05:09:31;13.73;;;2.20;;
15603;SDS011;7902;49.042;9.092;2024-03-25T05:11:57;12.53;;;2.10;;
15603;SDS011;7902;49.042;9.092;2024-03-25T05:14:23;14.10;;;2.33;;
15603;SDS011;7902;49.042;9.092;2024-03-25T05:16:49;19.23;;;2.53;;
15603;SDS011;7902;49.042;9.092;2024-03-25T05:19:17;14.13;;;2.43;;
15603;SDS011;7902;49.042;9.092;2024-03-25T05:21:44;17.60;;;2.70;;
15603;SDS011;7902;49.042;9.092;2024-03-25T05:24:10;17.50;;;2.43;;
15603;SDS011;7902;49.042;9.092;2024-03-25T05:26:36;16.30;;;2.83;;
15603;SDS011;7902;49.042;9.092;2024-03-25T05:29:02;20.73;;;3.40;;
15603;SDS011;7902;49.042;9.092;2024-03-25T05:31:28;19.67;;;3.40;;
15603;SDS011;7902;49.042;9.092;2024-03-25T05:33:54;14.03;;;2.37;;
15603;SDS011;7902;49.042;9.092;2024-03-25T05:36:20;20.23;;;3.00;;
15603;SDS011;7902;49.042;9.092;2024-03-25T05:38:46;21.70;;;2.70;;
15603;SDS011;7902;49.042;9.092;2024-03-25T05:41:12;16.40;;;3.27;;
15603;SDS011;7902;49.042;9.092;2024-03-25T05:43:38;13.67;;;2.57;;
15603;SDS011;7902;49.042;9.092;2024-03-25T05:46:04;15.00;;;2.77;;
15603;SDS011;7902;49.042;9.092;2024-03-25T05:48:30;13.93;;;2.30;;
15603;SDS011;7902;49.042;9.092;2024-03-25T05:51:02;14.30;;;2.40;;
15603;SDS011;7902;49.042;9.092;2024-03-25T05:53:33;19.23;;;3.30;;
15603;SDS011;7902;49.042;9.092;2024-03-25T05:55:59;15.40;;;2.40;;
15603;SDS011;7902;49.042;9.092;2024-03-25T05:58:25;16.07;;;2.50;;
15603;SDS011;7902;49.042;9.092;2024-03-25T06:00:52;20.80;;;2.33;;
15603;SDS011;7902;49.042;9.092;2024-03-25T06:03:21;16.10;;;2.93;;
15603;SDS011;7902;49.042;9.092;2024-03-25T06:05:47;12.67;;;2.20;;
15603;SDS011;7902;49.042;9.092;2024-03-25T06:08:13;17.20;;;2.63;;
15603;SDS011;7902;49.042;9.092;2024-03-25T06:10:47;15.83;;;2.70;;
15603;SDS011;7902;49.042;9.092;2024-03-25T06:13:13;15.63;;;2.93;;
15603;SDS011;7902;49.042;9.092;2024-03-25T06:15:38;16.70;;;2.60;;
15603;SDS011;7902;49.042;9.092;2024-03-25T06:18:04;14.03;;;2.40;;
15603;SDS011;7902;49.042;9.092;2024-03-25T06:20:30;18.60;;;2.00;;
15603;SDS011;7902;49.042;9.092;2024-03-25T06:22:56;15.17;;;2.40;;
15603;SDS011;7902;49.042;9.092;2024-03-25T06:25:22;16.93;;;2.33;;
15603;SDS011;7902;49.042;9.092;2024-03-25T06:27:48;14.73;;;2.23;;
15603;SDS011;7902;49.042;9.092;2024-03-25T06:30:14;12.80;;;2.37;;
15603;SDS011;7902;49.042;9.092;2024-03-25T06:32:59;19.87;;;2.70;;
15603;SDS011;7902;49.042;9.092;2024-03-25T06:35:43;14.73;;;1.97;;
15603;SDS011;7902;49.042;9.092;2024-03-25T06:38:10;15.27;;;1.97;;
15603;SDS011;7902;49.042;9.092;2024-03-25T06:40:37;16.30;;;2.33;;
15603;SDS011;7902;49.042;9.092;2024-03-25T06:43:03;19.80;;;2.07;;
15603;SDS011;7902;49.042;9.092;2024-03-25T06:45:30;15.30;;;2.47;;
15603;SDS011;7902;49.042;9.092;2024-03-25T06:47:56;15.33;;;2.87;;
15603;SDS011;7902;49.042;9.092;2024-03-25T06:50:23;17.60;;;2.50;;
15603;SDS011;7902;49.042;9.092;2024-03-25T06:52:49;15.37;;;2.43;;
15603;SDS011;7902;49.042;9.092;2024-03-25T06:55:15;17.83;;;2.80;;
15603;SDS011;7902;49.042;9.092;2024-03-25T06:57:41;25.10;;;3.07;;
15603;SDS011;7902;49.042;9.092;2024-03-25T07:00:07;12.47;;;1.80;;
15603;SDS011;7902;49.042;9.092;2024-03-25T07:02:41;16.50;;;2.40;;
15603;SDS011;7902;49.042;9.092;2024-03-25T07:05:07;14.53;;;2.37;;
15603;SDS011;7902;49.042;9.092;2024-03-25T07:07:33;14.70;;;1.93;;
15603;SDS011;7902;49.042;9.092;2024-03-25T07:10:00;14.80;;;2.60;;
15603;SDS011;7902;49.042;9.092;2024-03-25T07:12:26;21.10;;;2.10;;
15603;SDS011;7902;49.042;9.092;2024-03-25T07:14:52;17.43;;;1.80;;
15603;SDS011;7902;49.042;9.092;2024-03-25T07:17:18;24.90;;;1.80;;
15603;SDS011;7902;49.042;9.092;2024-03-25T07:19:44;15.30;;;2.00;;
15603;SDS011;7902;49.042;9.092;2024-03-25T07:22:10;17.10;;;1.80;;
15603;SDS011;7902;49.042;9.092;2024-03-25T07:24:36;13.60;;;1.53;;
15603;SDS011;7902;49.042;9.092;2024-03-25T07:27:02;16.80;;;1.80;;
15603;SDS011;7902;49.042;9.092;2024-03-25T07:29:28;18.30;;;1.77;;
15603;SDS011;7902;49.042;9.092;2024-03-25T07:31:54;13.40;;;1.53;;
15603;SDS011;7902;49.042;9.092;2024-03-25T07:34:20;14.43;;;1.57;;
15603;SDS011;7902;49.042;9.092;2024-03-25T07:36:46;13.00;;;1.77;;
15603;SDS011;7902;49.042;9.092;2024-03-25T07:39:14;12.73;;;1.30;;
15603;SDS011;7902;49.042;9.092;2024-03-25T07:41:40;14.30;;;1.67;;
15603;SDS011;7902;49.042;9.092;2024-03-25T07:44:06;15.47;;;1.43;;
15603;SDS011;7902;49.042;9.092;2024-03-25T07:46:32;16.50;;;1.77;;
15603;SDS011;7902;49.042;9.092;2024-03-25T07:48:58;15.80;;;1.73;;
15603;SDS011;7902;49.042;9.092;2024-03-25T07:51:24;13.50;;;1.63;;
15603;SDS011;7902;49.042;9.092;2024-03-25T07:53:50;13.90;;;1.67;;
15603;SDS011;7902;49.042;9.092;2024-03-25T07:56:16;16.40;;;1.97;;
15603;SDS011;7902;49.042;9.092;2024-03-25T07:58:42;18.00;;;2.30;;
15603;SDS011;7902;49.042;9.092;2024-03-25T08:01:08;16.63;;;2.00;;
15603;SDS011;7902;49.042;9.092;2024-03-25T08:03:34;17.73;;;1.50;;
15603;SDS011;7902;49.042;9.092;2024-03-25T08:06:00;13.23;;;1.57;;
15603;SDS011;7902;49.042;9.092;2024-03-25T08:08:25;12.73;;;1.40;;
15603;SDS011;7902;49.042;9.092;2024-03-25T08:10:52;16.80;;;1.63;;
15603;SDS011;7902;49.042;9.092;2024-03-25T08:13:18;12.87;;;1.20;;
15603;SDS011;7902;49.042;9.092;2024-03-25T08:15:48;13.00;;;1.43;;
15603;SDS011;7902;49.042;9.092;2024-03-25T08:18:14;13.90;;;1.57;;
15603;SDS011;7902;49.042;9.092;2024-03-25T08:20:40;19.33;;;1.60;;
15603;SDS011;7902;49.042;9.092;2024-03-25T08:23:06;14.63;;;1.60;;
15603;SDS011;7902;49.042;9.092;2024-03-25T08:25:32;14.40;;;1.50;;
15603;SDS011;7902;49.042;9.092;2024-03-25T08:27:58;13.27;;;1.00;;
15603;SDS011;7902;49.042;9.092;2024-03-25T08:30:24;14.60;;;1.90;;
15603;SDS011;7902;49.042;9.092;2024-03-25T08:32:50;15.50;;;1.10;;
15603;SDS011;7902;49.042;9.092;2024-03-25T08:35:17;12.70;;;1.20;;
15603;SDS011;7902;49.042;9.092;2024-03-25T08:37:43;17.53;;;1.17;;
15603;SDS011;7902;49.042;9.092;2024-03-25T08:40:09;13.40;;;1.33;;
15603;SDS011;7902;49.042;9.092;2024-03-25T08:42:35;16.97;;;1.30;;
15603;SDS011;7902;49.042;9.092;2024-03-25T08:45:01;14.57;;;1.10;;
15603;SDS011;7902;49.042;9.092;2024-03-25T08:47:27;14.20;;;1.30;;
15603;SDS011;7902;49.042;9.092;2024-03-25T08:49:53;14.90;;;1.00;;
15603;SDS011;7902;49.042;9.092;2024-03-25T08:52:19;18.80;;;1.67;;
15603;SDS011;7902;49.042;9.092;2024-03-25T08:54:45;15.57;;;1.20;;
15603;SDS011;7902;49.042;9.092;2024-03-25T08:57:11;14.23;;;1.20;;
15603;SDS011;7902;49.042;9.092;2024-03-25T08:59:37;17.23;;;1.60;;
15603;SDS011;7902;49.042;9.092;2024-03-25T09:02:03;16.03;;;1.30;;
15603;SDS011;7902;49.042;9.092;2024-03-25T09:04:29;14.40;;;1.40;;
15603;SDS011;7902;49.042;9.092;2024-03-25T09:06:54;14.00;;;1.17;;
15603;SDS011;7902;49.042;9.092;2024-03-25T09:09:20;14.43;;;1.47;;
15603;SDS011;7902;49.042;9.092;2024-03-25T09:12:05;16.80;;;1.93;;
15603;SDS011;7902;49.042;9.092;2024-03-25T09:14:32;22.20;;;2.67;;
15603;SDS011;7902;49.042;9.092;2024-03-25T09:16:58;14.73;;;1.27;;
15603;SDS011;7902;49.042;9.092;2024-03-25T09:19:24;19.47;;;1.80;;
15603;SDS011;7902;49.042;9.092;2024-03-25T09:21:51;21.83;;;2.03;;
15603;SDS011;7902;49.042;9.092;2024-03-25T09:24:17;14.47;;;1.20;;
15603;SDS011;7902;49.042;9.092;2024-03-25T09:26:44;20.00;;;1.37;;
15603;SDS011;7902;49.042;9.092;2024-03-25T09:29:11;17.53;;;1.50;;
15603;SDS011;7902;49.042;9.092;2024-03-25T09:31:38;13.70;;;1.30;;
15603;SDS011;7902;49.042;9.092;2024-03-25T09:34:05;14.00;;;1.27;;
15603;SDS011;7902;49.042;9.092;2024-03-25T09:36:31;13.17;;;1.07;;
15603;SDS011;7902;49.042;9.092;2024-03-25T09:38:57;16.43;;;1.80;;
15603;SDS011;7902;49.042;9.092;2024-03-25T09:41:23;13.43;;;1.20;;
15603;SDS011;7902;49.042;9.092;2024-03-25T09:43:52;13.93;;;1.23;;
15603;SDS011;7902;49.042;9.092;2024-03-25T09:46:20;13.63;;;1.10;;
15603;SDS011;7902;49.042;9.092;2024-03-25T09:48:46;15.80;;;1.40;;
15603;SDS011;7902;49.042;9.092;2024-03-25T09:51:12;20.10;;;1.30;;
15603;SDS011;7902;49.042;9.092;2024-03-25T09:53:38;15.80;;;1.40;;
15603;SDS011;7902;49.042;9.092;2024-03-25T09:56:04;16.83;;;1.70;;
15603;SDS011;7902;49.042;9.092;2024-03-25T09:58:31;14.50;;;1.47;;
15603;SDS011;7902;49.042;9.092;2024-03-25T10:00:58;15.90;;;1.37;;
15603;SDS011;7902;49.042;9.092;2024-03-25T10:03:24;16.07;;;1.73;;
15603;SDS011;7902;49.042;9.092;2024-03-25T10:05:50;15.77;;;1.37;;
15603;SDS011;7902;49.042;9.092;2024-03-25T10:08:22;18.70;;;1.80;;
15603;SDS011;7902;49.042;9.092;2024-03-25T10:10:48;29.70;;;1.40;;
15603;SDS011;7902;49.042;9.092;2024-03-25T10:13:16;16.27;;;1.23;;
15603;SDS011;7902;49.042;9.092;2024-03-25T10:15:42;17.90;;;1.63;;
15603;SDS011;7902;49.042;9.092;2024-03-25T10:18:11;18.00;;;1.50;;
15603;SDS011;7902;49.042;9.092;2024-03-25T10:20:37;15.63;;;1.40;;
15603;SDS011;7902;49.042;9.092;2024-03-25T10:23:03;16.23;;;1.60;;
15603;SDS011;7902;49.042;9.092;2024-03-25T10:25:30;12.77;;;0.97;;
15603;SDS011;7902;49.042;9.092;2024-03-25T10:27:57;16.00;;;1.50;;
15603;SDS011;7902;49.042;9.092;2024-03-25T10:30:27;20.00;;;1.40;;
15603;SDS011;7902;49.042;9.092;2024-03-25T10:33:03;15.73;;;1.60;;
15603;SDS011;7902;49.042;9.092;2024-03-25T10:35:32;18.73;;;1.80;;
15603;SDS011;7902;49.042;9.092;2024-03-25T10:37:59;13.63;;;1.53;;
15603;SDS011;7902;49.042;9.092;2024-03-25T10:40:38;14.33;;;1.40;;
15603;SDS011;7902;49.042;9.092;2024-03-25T10:45:33;16.60;;;1.30;;
15603;SDS011;7902;49.042;9.092;2024-03-25T10:50:45;16.17;;;1.50;;
15603;SDS011;7902;49.042;9.092;2024-03-25T10:53:12;13.93;;;1.33;;
15603;SDS011;7902;49.042;9.092;2024-03-25T10:55:42;22.70;;;1.70;;
15603;SDS011;7902;49.042;9.092;2024-03-25T10:58:14;16.90;;;1.60;;
15603;SDS011;7902;49.042;9.092;2024-03-25T11:00:41;15.23;;;1.27;;
15603;SDS011;7902;49.042;9.092;2024-03-25T11:03:09;16.43;;;1.90;;
15603;SDS011;7902;49.042;9.092;2024-03-25T11:05:36;14.47;;;1.27;;
15603;SDS011;7902;49.042;9.092;2024-03-25T11:08:09;19.17;;;1.13;;
15603;SDS011;7902;49.042;9.092;2024-03-25T11:10:44;17.40;;;1.47;;
15603;SDS011;7902;49.042;9.092;2024-03-25T11:13:18;15.77;;;1.20;;
15603;SDS011;7902;49.042;9.092;2024-03-25T11:15:46;14.97;;;1.53;;
15603;SDS011;7902;49.042;9.092;2024-03-25T11:18:13;17.37;;;1.50;;
15603;SDS011;7902;49.042;9.092;2024-03-25T11:20:44;15.80;;;1.43;;
15603;SDS011;7902;49.042;9.092;2024-03-25T11:23:11;15.83;;;1.70;;
15603;SDS011;7902;49.042;9.092;2024-03-25T11:25:40;15.60;;;1.60;;
15603;SDS011;7902;49.042;9.092;2024-03-25T11:28:08;19.53;;;1.60;;
15603;SDS011;7902;49.042;9.092;2024-03-25T11:30:36;17.87;;;1.50;;
15603;SDS011;7902;49.042;9.092;2024-03-25T11:33:02;15.53;;;1.30;;
15603;SDS011;7902;49.042;9.092;2024-03-25T11:35:40;19.43;;;1.80;;
15603;SDS011;7902;49.042;9.092;2024-03-25T11:38:06;17.53;;;1.40;;
15603;SDS011;7902;49.042;9.092;2024-03-25T11:40:32;15.17;;;1.50;;
15603;SDS011;7902;49.042;9.092;2024-03-25T11:42:58;15.97;;;1.43;;
15603;SDS011;7902;49.042;9.092;2024-03-25T11:45:24;16.57;;;1.33;;
15603;SDS011;7902;49.042;9.092;2024-03-25T11:47:50;15.13;;;1.70;;
15603;SDS011;7902;49.042;9.092;2024-03-25T11:50:17;18.40;;;1.40;;
15603;SDS011;7902;49.042;9.092;2024-03-25T11:52:44;20.80;;;1.70;;
15603;SDS011;7902;49.042;9.092;2024-03-25T11:55:10;15.23;;;1.40;;
15603;SDS011;7902;49.042;9.092;2024-03-25T11:57:40;19.20;;;1.80;;
15603;SDS011;7902;49.042;9.092;2024-03-25T12:00:07;15.30;;;1.40;;
15603;SDS011;7902;49.042;9.092;2024-03-25T12:02:45;15.00;;;1.50;;
15603;SDS011;7902;49.042;9.092;2024-03-25T12:05:12;15.53;;;1.47;;
15603;SDS011;7902;49.042;9.092;2024-03-25T12:07:38;15.93;;;1.83;;
15603;SDS011;7902;49.042;9.092;2024-03-25T12:10:04;17.67;;;1.73;;
15603;SDS011;7902;49.042;9.092;2024-03-25T12:12:48;16.13;;;1.63;;
15603;SDS011;7902;49.042;9.092;2024-03-25T12:15:16;15.20;;;1.60;;
15603;SDS011;7902;49.042;9.092;2024-03-25T12:17:42;15.03;;;1.30;;
15603;SDS011;7902;49.042;9.092;2024-03-25T12:20:08;15.30;;;1.47;;
15603;SDS011;7902;49.042;9.092;2024-03-25T12:22:35;15.50;;;1.27;;
15603;SDS011;7902;49.042;9.092;2024-03-25T12:25:02;17.70;;;1.70;;
15603;SDS011;7902;49.042;9.092;2024-03-25T12:27:29;16.97;;;1.40;;
15603;SDS011;7902;49.042;9.092;2024-03-25T12:30:05;16.00;;;1.50;;
15603;SDS011;7902;49.042;9.092;2024-03-25T12:32:39;18.80;;;1.57;;
15603;SDS011;7902;49.042;9.092;2024-03-25T12:35:10;15.07;;;1.30;;
15603;SDS011;7902;49.042;9.092;2024-03-25T12:37:36;15.50;;;1.00;;
15603;SDS011;7902;49.042;9.092;2024-03-25T12:40:04;16.00;;;1.23;;
15603;SDS011;7902;49.042;9.092;2024-03-25T12:42:32;13.90;;;1.00;;
15603;SDS011;7902;49.042;9.092;2024-03-25T12:44:58;19.00;;;1.67;;
15603;SDS011;7902;49.042;9.092;2024-03-25T12:47:24;16.30;;;1.20;;
15603;SDS011;7902;49.042;9.092;2024-03-25T12:49:50;15.63;;;1.23;;
15603;SDS011;7902;49.042;9.092;2024-03-25T12:52:16;20.90;;;1.53;;
15603;SDS011;7902;49.042;9.092;2024-03-25T12:54:42;28.33;;;1.40;;
15603;SDS011;7902;49.042;9.092;2024-03-25T12:57:09;19.10;;;1.87;;
15603;SDS011;7902;49.042;9.092;2024-03-25T12:59:35;17.27;;;1.50;;
15603;SDS011;7902;49.042;9.092;2024-03-25T13:02:01;17.47;;;1.63;;
15603;SDS011;7902;49.042;9.092;2024-03-25T13:04:28;25.93;;;1.40;;
15603;SDS011;7902;49.042;9.092;2024-03-25T13:06:54;15.77;;;1.57;;
15603;SDS011;7902;49.042;9.092;2024-03-25T13:09:19;17.90;;;1.40;;
15603;SDS011;7902;49.042;9.092;2024-03-25T13:11:45;18.20;;;1.23;;
15603;SDS011;7902;49.042;9.092;2024-03-25T13:14:12;19.60;;;1.80;;
15603;SDS011;7902;49.042;9.092;2024-03-25T13:16:38;17.53;;;1.17;;
15603;SDS011;7902;49.042;9.092;2024-03-25T13:19:06;20.07;;;1.60;;
15603;SDS011;7902;49.042;9.092;2024-03-25T13:21:32;18.23;;;1.43;;
15603;SDS011;7902;49.042;9.092;2024-03-25T13:23:58;16.80;;;1.50;;
15603;SDS011;7902;49.042;9.092;2024-03-25T13:26:24;17.30;;;1.40;;
15603;SDS011;7902;49.042;9.092;2024-03-25T13:28:50;20.90;;;1.60;;
15603;SDS011;7902;49.042;9.092;2024-03-25T13:31:16;16.53;;;1.47;;
15603;SDS011;7902;49.042;9.092;2024-03-25T13:33:42;21.30;;;1.83;;
15603;SDS011;7902;49.042;9.092;2024-03-25T13:36:08;21.73;;;1.50;;
15603;SDS011;7902;49.042;9.092;2024-03-25T13:38:34;19.90;;;1.77;;
15603;SDS011;7902;49.042;9.092;2024-03-25T13:41:01;16.67;;;1.53;;
15603;SDS011;7902;49.042;9.092;2024-03-25T13:43:28;19.13;;;1.40;;
15603;SDS011;7902;49.042;9.092;2024-03-25T13:45:54;18.47;;;1.60;;
15603;SDS011;7902;49.042;9.092;2024-03-25T13:48:20;18.70;;;1.47;;
15603;SDS011;7902;49.042;9.092;2024-03-25T13:50:46;19.03;;;1.53;;
15603;SDS011;7902;49.042;9.092;2024-03-25T13:53:13;19.00;;;1.70;;
15603;SDS011;7902;49.042;9.092;2024-03-25T13:55:39;24.50;;;2.60;;
15603;SDS011;7902;49.042;9.092;2024-03-25T13:58:05;21.07;;;2.40;;
15603;SDS011;7902;49.042;9.092;2024-03-25T14:00:33;20.75;;;1.27;;
15603;SDS011;7902;49.042;9.092;2024-03-25T14:03:02;17.38;;;1.42;;
15603;SDS011;7902;49.042;9.092;2024-03-25T14:05:29;25.23;;;1.85;;
15603;SDS011;7902;49.042;9.092;2024-03-25T14:07:55;25.67;;;2.17;;
15603;SDS011;7902;49.042;9.092;2024-03-25T14:10:21;18.67;;;1.73;;
15603;SDS011;7902;49.042;9.092;2024-03-25T14:12:47;18.75;;;1.35;;
15603;SDS011;7902;49.042;9.092;2024-03-25T14:15:13;21.27;;;1.90;;
15603;SDS011;7902;49.042;9.092;2024-03-25T14:17:39;17.83;;;1.67;;
15603;SDS011;7902;49.042;9.092;2024-03-25T14:20:06;23.90;;;1.88;;
15603;SDS011;7902;49.042;9.092;2024-03-25T14:22:32;17.10;;;1.50;;
15603;SDS011;7902;49.042;9.092;2024-03-25T14:24:58;20.25;;;1.98;;
15603;SDS011;7902;49.042;9.092;2024-03-25T14:27:25;21.75;;;2.33;;
15603;SDS011;7902;49.042;9.092;2024-03-25T14:29:51;16.85;;;1.23;;
15603;SDS011;7902;49.042;9.092;2024-03-25T14:32:18;19.08;;;1.85;;
15603;SDS011;7902;49.042;9.092;2024-03-25T14:34:45;17.88;;;1.45;;
15603;SDS011;7902;49.042;9.092;2024-03-25T14:37:12;17.70;;;1.65;;
15603;SDS011;7902;49.042;9.092;2024-03-25T14:39:38;17.77;;;1.80;;
15603;SDS011;7902;49.042;9.092;2024-03-25T14:42:04;18.38;;;1.42;;
15603;SDS011;7902;49.042;9.092;2024-03-25T14:44:30;88.72;;;3.63;;
15603;SDS011;7902;49.042;9.092;2024-03-25T14:46:56;49.80;;;3.40;;
15603;SDS011;7902;49.042;9.092;2024-03-25T14:49:24;38.92;;;2.25;;
15603;SDS011;7902;49.042;9.092;2024-03-25T14:51:50;70.13;;;3.42;;
15603;SDS011;7902;49.042;9.092;2024-03-25T14:54:19;43.45;;;3.30;;
15603;SDS011;7902;49.042;9.092;2024-03-25T14:56:46;20.13;;;2.33;;